sensor_id;sensor_type;location;lat;lon;timestamp;temperature;humidity
29031;DHT22;16122;50.236;11.734;2023-05-06T00:00:35;17.90;74.00
29031;DHT22;16122;50.236;11.734;2023-05-06T00:03:02;17.90;73.90
29031;DHT22;16122;50.236;11.734;2023-05-06T00:05:28;17.90;73.80
29031;DHT22;16122;50.236;11.734;2023-05-06T00:07:54;17.90;73.80
29031;DHT22;16122;50.236;11.734;2023-05-06T00:10:20;17.90;73.80
29031;DHT22;16122;50.236;11.734;2023-05-06T00:12:46;17.90;73.70
29031;DHT22;16122;50.236;11.734;2023-05-06T00:15:11;17.90;73.70
29031;DHT22;16122;50.236;11.734;2023-05-06T00:17:37;17.90;73.70
29031;DHT22;16122;50.236;11.734;2023-05-06T00:20:04;17.90;73.60
29031;DHT22;16122;50.236;11.734;2023-05-06T00:22:30;17.90;73.60
29031;DHT22;16122;50.236;11.734;2023-05-06T00:24:56;17.90;73.60
29031;DHT22;16122;50.236;11.734;2023-05-06T00:27:22;17.90;73.50
29031;DHT22;16122;50.236;11.734;2023-05-06T00:29:48;17.80;73.40
29031;DHT22;16122;50.236;11.734;2023-05-06T00:32:14;17.80;73.40
29031;DHT22;16122;50.236;11.734;2023-05-06T00:34:40;17.90;73.40
29031;DHT22;16122;50.236;11.734;2023-05-06T00:37:06;17.80;73.40
29031;DHT22;16122;50.236;11.734;2023-05-06T00:39:31;17.90;73.40
29031;DHT22;16122;50.236;11.734;2023-05-06T00:42:02;17.80;73.20
29031;DHT22;16122;50.236;11.734;2023-05-06T00:44:29;17.80;73.20
29031;DHT22;16122;50.236;11.734;2023-05-06T00:46:55;17.90;73.30
29031;DHT22;16122;50.236;11.734;2023-05-06T00:49:22;17.90;73.30
29031;DHT22;16122;50.236;11.734;2023-05-06T00:51:50;17.80;73.10
29031;DHT22;16122;50.236;11.734;2023-05-06T00:54:16;17.90;73.20
29031;DHT22;16122;50.236;11.734;2023-05-06T00:56:42;17.80;73.60
29031;DHT22;16122;50.236;11.734;2023-05-06T00:59:08;17.80;73.00
29031;DHT22;16122;50.236;11.734;2023-05-06T01:01:34;17.80;73.00
29031;DHT22;16122;50.236;11.734;2023-05-06T01:03:59;17.90;73.10
29031;DHT22;16122;50.236;11.734;2023-05-06T01:06:31;17.80;73.00
29031;DHT22;16122;50.236;11.734;2023-05-06T01:17:25;17.80;72.90
29031;DHT22;16122;50.236;11.734;2023-05-06T01:19:56;17.80;72.80
29031;DHT22;16122;50.236;11.734;2023-05-06T01:22:23;17.80;72.80
29031;DHT22;16122;50.236;11.734;2023-05-06T01:24:51;17.80;72.80
29031;DHT22;16122;50.236;11.734;2023-05-06T01:27:17;17.80;72.80
29031;DHT22;16122;50.236;11.734;2023-05-06T01:29:44;17.80;72.80
29031;DHT22;16122;50.236;11.734;2023-05-06T01:37:45;17.80;72.70
29031;DHT22;16122;50.236;11.734;2023-05-06T01:40:14;17.80;72.70
29031;DHT22;16122;50.236;11.734;2023-05-06T01:42:40;17.80;72.60
29031;DHT22;16122;50.236;11.734;2023-05-06T01:45:10;17.80;72.60
29031;DHT22;16122;50.236;11.734;2023-05-06T01:47:38;17.80;72.60
29031;DHT22;16122;50.236;11.734;2023-05-06T01:50:05;17.70;72.50
29031;DHT22;16122;50.236;11.734;2023-05-06T01:52:32;17.70;72.40
29031;DHT22;16122;50.236;11.734;2023-05-06T01:54:57;17.80;72.50
29031;DHT22;16122;50.236;11.734;2023-05-06T01:57:23;17.70;72.40
29031;DHT22;16122;50.236;11.734;2023-05-06T01:59:50;17.80;72.40
29031;DHT22;16122;50.236;11.734;2023-05-06T02:02:15;17.70;72.40
29031;DHT22;16122;50.236;11.734;2023-05-06T02:04:41;17.70;72.30
29031;DHT22;16122;50.236;11.734;2023-05-06T02:07:07;17.70;72.30
29031;DHT22;16122;50.236;11.734;2023-05-06T02:09:33;17.70;72.30
29031;DHT22;16122;50.236;11.734;2023-05-06T02:12:01;17.70;72.40
29031;DHT22;16122;50.236;11.734;2023-05-06T02:14:27;17.70;72.30
29031;DHT22;16122;50.236;11.734;2023-05-06T02:16:54;17.70;72.30
29031;DHT22;16122;50.236;11.734;2023-05-06T02:19:20;17.70;72.30
29031;DHT22;16122;50.236;11.734;2023-05-06T02:21:45;17.70;72.30
29031;DHT22;16122;50.236;11.734;2023-05-06T02:24:11;17.70;72.20
29031;DHT22;16122;50.236;11.734;2023-05-06T02:26:37;17.70;72.20
29031;DHT22;16122;50.236;11.734;2023-05-06T02:29:03;17.70;72.20
29031;DHT22;16122;50.236;11.734;2023-05-06T02:31:29;17.70;72.20
29031;DHT22;16122;50.236;11.734;2023-05-06T02:33:56;17.70;72.20
29031;DHT22;16122;50.236;11.734;2023-05-06T02:36:22;17.70;72.10
29031;DHT22;16122;50.236;11.734;2023-05-06T02:38:47;17.70;72.10
29031;DHT22;16122;50.236;11.734;2023-05-06T02:41:13;17.70;72.10
29031;DHT22;16122;50.236;11.734;2023-05-06T02:43:39;17.70;72.10
29031;DHT22;16122;50.236;11.734;2023-05-06T02:46:05;17.70;72.10
29031;DHT22;16122;50.236;11.734;2023-05-06T02:48:30;17.70;72.10
29031;DHT22;16122;50.236;11.734;2023-05-06T02:50:56;17.70;72.10
29031;DHT22;16122;50.236;11.734;2023-05-06T02:53:22;17.70;72.10
29031;DHT22;16122;50.236;11.734;2023-05-06T02:55:48;17.70;72.00
29031;DHT22;16122;50.236;11.734;2023-05-06T02:58:14;17.70;72.00
29031;DHT22;16122;50.236;11.734;2023-05-06T03:00:39;17.70;72.10
29031;DHT22;16122;50.236;11.734;2023-05-06T03:03:05;17.70;72.00
29031;DHT22;16122;50.236;11.734;2023-05-06T03:05:31;17.70;72.00
29031;DHT22;16122;50.236;11.734;2023-05-06T03:07:57;17.60;71.90
29031;DHT22;16122;50.236;11.734;2023-05-06T03:10:23;17.70;72.00
29031;DHT22;16122;50.236;11.734;2023-05-06T03:12:49;17.60;71.90
29031;DHT22;16122;50.236;11.734;2023-05-06T03:15:15;17.70;72.00
29031;DHT22;16122;50.236;11.734;2023-05-06T03:17:41;17.60;71.80
29031;DHT22;16122;50.236;11.734;2023-05-06T03:20:08;17.60;71.80
29031;DHT22;16122;50.236;11.734;2023-05-06T03:22:37;17.70;71.90
29031;DHT22;16122;50.236;11.734;2023-05-06T03:25:03;17.60;71.80
29031;DHT22;16122;50.236;11.734;2023-05-06T03:27:31;17.60;71.70
29031;DHT22;16122;50.236;11.734;2023-05-06T03:30:02;17.60;71.70
29031;DHT22;16122;50.236;11.734;2023-05-06T03:32:29;17.60;71.70
29031;DHT22;16122;50.236;11.734;2023-05-06T03:34:56;17.60;71.70
29031;DHT22;16122;50.236;11.734;2023-05-06T03:37:22;17.60;71.70
29031;DHT22;16122;50.236;11.734;2023-05-06T03:39:52;17.60;71.60
29031;DHT22;16122;50.236;11.734;2023-05-06T03:42:21;17.60;71.50
29031;DHT22;16122;50.236;11.734;2023-05-06T03:44:47;17.70;71.50
29031;DHT22;16122;50.236;11.734;2023-05-06T03:47:14;17.70;71.50
29031;DHT22;16122;50.236;11.734;2023-05-06T03:49:40;17.70;71.50
29031;DHT22;16122;50.236;11.734;2023-05-06T03:52:06;17.70;71.40
29031;DHT22;16122;50.236;11.734;2023-05-06T03:54:32;17.80;71.60
29031;DHT22;16122;50.236;11.734;2023-05-06T03:56:59;17.80;71.60
29031;DHT22;16122;50.236;11.734;2023-05-06T03:59:25;17.80;71.60
29031;DHT22;16122;50.236;11.734;2023-05-06T04:01:52;17.80;71.60
29031;DHT22;16122;50.236;11.734;2023-05-06T04:04:18;17.80;71.60
29031;DHT22;16122;50.236;11.734;2023-05-06T04:06:44;17.80;71.50
29031;DHT22;16122;50.236;11.734;2023-05-06T04:09:10;17.80;71.50
29031;DHT22;16122;50.236;11.734;2023-05-06T04:11:38;17.80;71.50
29031;DHT22;16122;50.236;11.734;2023-05-06T04:14:05;17.80;71.50
29031;DHT22;16122;50.236;11.734;2023-05-06T04:16:33;17.80;71.40
29031;DHT22;16122;50.236;11.734;2023-05-06T04:18:58;17.80;71.40
29031;DHT22;16122;50.236;11.734;2023-05-06T04:21:26;17.80;71.40
29031;DHT22;16122;50.236;11.734;2023-05-06T04:23:58;17.90;71.50
29031;DHT22;16122;50.236;11.734;2023-05-06T04:26:32;17.80;71.30
29031;DHT22;16122;50.236;11.734;2023-05-06T04:28:58;17.80;71.30
29031;DHT22;16122;50.236;11.734;2023-05-06T04:31:24;17.80;71.30
29031;DHT22;16122;50.236;11.734;2023-05-06T04:33:56;17.80;71.30
29031;DHT22;16122;50.236;11.734;2023-05-06T04:36:24;17.80;71.30
29031;DHT22;16122;50.236;11.734;2023-05-06T04:39:10;17.80;71.20
29031;DHT22;16122;50.236;11.734;2023-05-06T04:41:37;17.80;71.20
29031;DHT22;16122;50.236;11.734;2023-05-06T04:44:04;17.80;71.20
29031;DHT22;16122;50.236;11.734;2023-05-06T04:46:30;17.80;71.20
29031;DHT22;16122;50.236;11.734;2023-05-06T04:48:56;17.80;71.20
29031;DHT22;16122;50.236;11.734;2023-05-06T04:51:23;17.80;71.20
29031;DHT22;16122;50.236;11.734;2023-05-06T04:53:49;17.80;71.00
29031;DHT22;16122;50.236;11.734;2023-05-06T04:56:15;17.80;71.10
29031;DHT22;16122;50.236;11.734;2023-05-06T04:58:41;17.80;71.20
29031;DHT22;16122;50.236;11.734;2023-05-06T05:01:08;17.90;71.20
29031;DHT22;16122;50.236;11.734;2023-05-06T05:03:35;17.90;71.00
29031;DHT22;16122;50.236;11.734;2023-05-06T05:06:02;17.90;71.10
29031;DHT22;16122;50.236;11.734;2023-05-06T05:08:28;17.90;71.30
29031;DHT22;16122;50.236;11.734;2023-05-06T05:10:54;17.90;71.40
29031;DHT22;16122;50.236;11.734;2023-05-06T05:13:22;17.90;71.50
29031;DHT22;16122;50.236;11.734;2023-05-06T05:15:53;17.90;71.60
29031;DHT22;16122;50.236;11.734;2023-05-06T05:18:19;17.90;71.70
29031;DHT22;16122;50.236;11.734;2023-05-06T05:20:50;17.90;71.80
29031;DHT22;16122;50.236;11.734;2023-05-06T05:23:17;17.90;71.90
29031;DHT22;16122;50.236;11.734;2023-05-06T05:25:43;17.90;72.00
29031;DHT22;16122;50.236;11.734;2023-05-06T05:28:09;17.90;72.10
29031;DHT22;16122;50.236;11.734;2023-05-06T05:30:37;17.90;72.10
29031;DHT22;16122;50.236;11.734;2023-05-06T05:33:04;17.90;72.10
29031;DHT22;16122;50.236;11.734;2023-05-06T05:35:30;17.90;72.30
29031;DHT22;16122;50.236;11.734;2023-05-06T05:37:57;17.90;72.30
29031;DHT22;16122;50.236;11.734;2023-05-06T05:40:23;17.90;72.40
29031;DHT22;16122;50.236;11.734;2023-05-06T05:42:51;18.00;72.50
29031;DHT22;16122;50.236;11.734;2023-05-06T05:45:24;18.00;72.60
29031;DHT22;16122;50.236;11.734;2023-05-06T05:47:50;18.00;72.70
29031;DHT22;16122;50.236;11.734;2023-05-06T05:50:16;18.00;72.90
29031;DHT22;16122;50.236;11.734;2023-05-06T05:52:43;18.00;72.70
29031;DHT22;16122;50.236;11.734;2023-05-06T05:55:09;18.00;72.70
29031;DHT22;16122;50.236;11.734;2023-05-06T05:57:38;18.00;72.60
29031;DHT22;16122;50.236;11.734;2023-05-06T06:00:04;18.00;72.60
29031;DHT22;16122;50.236;11.734;2023-05-06T06:02:31;18.00;73.40
29031;DHT22;16122;50.236;11.734;2023-05-06T06:04:59;18.00;72.60
29031;DHT22;16122;50.236;11.734;2023-05-06T06:07:25;18.00;72.50
29031;DHT22;16122;50.236;11.734;2023-05-06T06:09:51;18.00;72.50
29031;DHT22;16122;50.236;11.734;2023-05-06T06:12:16;18.00;72.50
29031;DHT22;16122;50.236;11.734;2023-05-06T06:14:44;18.00;72.40
29031;DHT22;16122;50.236;11.734;2023-05-06T06:17:15;18.00;72.50
29031;DHT22;16122;50.236;11.734;2023-05-06T06:19:44;18.00;72.60
29031;DHT22;16122;50.236;11.734;2023-05-06T06:22:11;18.00;72.60
29031;DHT22;16122;50.236;11.734;2023-05-06T06:24:37;18.00;72.70
29031;DHT22;16122;50.236;11.734;2023-05-06T06:27:03;18.00;72.90
29031;DHT22;16122;50.236;11.734;2023-05-06T06:29:29;18.00;73.10
29031;DHT22;16122;50.236;11.734;2023-05-06T06:31:54;18.00;73.20
29031;DHT22;16122;50.236;11.734;2023-05-06T06:34:21;18.00;73.20
29031;DHT22;16122;50.236;11.734;2023-05-06T06:36:47;18.00;73.30
29031;DHT22;16122;50.236;11.734;2023-05-06T06:39:12;18.00;73.30
29031;DHT22;16122;50.236;11.734;2023-05-06T06:41:38;18.00;73.40
29031;DHT22;16122;50.236;11.734;2023-05-06T06:44:04;18.00;73.40
29031;DHT22;16122;50.236;11.734;2023-05-06T06:46:30;18.00;73.50
29031;DHT22;16122;50.236;11.734;2023-05-06T06:48:56;18.00;73.60
29031;DHT22;16122;50.236;11.734;2023-05-06T06:51:22;18.00;73.50
29031;DHT22;16122;50.236;11.734;2023-05-06T06:53:50;18.00;73.40
29031;DHT22;16122;50.236;11.734;2023-05-06T06:56:15;18.00;73.20
29031;DHT22;16122;50.236;11.734;2023-05-06T06:58:41;18.00;73.30
29031;DHT22;16122;50.236;11.734;2023-05-06T07:01:08;18.00;73.30
29031;DHT22;16122;50.236;11.734;2023-05-06T07:03:34;18.00;73.30
29031;DHT22;16122;50.236;11.734;2023-05-06T07:06:00;18.00;73.20
29031;DHT22;16122;50.236;11.734;2023-05-06T07:08:26;18.00;73.30
29031;DHT22;16122;50.236;11.734;2023-05-06T07:10:52;18.00;73.10
29031;DHT22;16122;50.236;11.734;2023-05-06T07:13:18;18.00;72.90
29031;DHT22;16122;50.236;11.734;2023-05-06T07:15:45;18.10;72.90
29031;DHT22;16122;50.236;11.734;2023-05-06T07:18:11;18.00;72.80
29031;DHT22;16122;50.236;11.734;2023-05-06T07:20:36;18.10;72.70
29031;DHT22;16122;50.236;11.734;2023-05-06T07:23:02;18.00;72.60
29031;DHT22;16122;50.236;11.734;2023-05-06T07:25:28;18.10;72.70
29031;DHT22;16122;50.236;11.734;2023-05-06T07:27:55;18.10;72.60
29031;DHT22;16122;50.236;11.734;2023-05-06T07:30:21;18.00;72.70
29031;DHT22;16122;50.236;11.734;2023-05-06T07:32:47;18.00;72.50
29031;DHT22;16122;50.236;11.734;2023-05-06T07:35:13;18.00;72.60
29031;DHT22;16122;50.236;11.734;2023-05-06T07:37:39;18.00;72.40
29031;DHT22;16122;50.236;11.734;2023-05-06T07:40:05;18.10;72.60
29031;DHT22;16122;50.236;11.734;2023-05-06T07:42:31;18.10;72.50
29031;DHT22;16122;50.236;11.734;2023-05-06T07:44:57;18.10;72.40
29031;DHT22;16122;50.236;11.734;2023-05-06T07:47:28;18.10;72.50
29031;DHT22;16122;50.236;11.734;2023-05-06T07:49:55;18.10;72.40
29031;DHT22;16122;50.236;11.734;2023-05-06T07:52:21;18.10;72.30
29031;DHT22;16122;50.236;11.734;2023-05-06T07:54:47;18.10;72.40
29031;DHT22;16122;50.236;11.734;2023-05-06T07:57:13;18.00;72.30
29031;DHT22;16122;50.236;11.734;2023-05-06T07:59:41;18.00;72.20
29031;DHT22;16122;50.236;11.734;2023-05-06T08:02:07;18.00;72.20
29031;DHT22;16122;50.236;11.734;2023-05-06T08:04:33;18.00;72.20
29031;DHT22;16122;50.236;11.734;2023-05-06T08:06:59;18.00;72.30
29031;DHT22;16122;50.236;11.734;2023-05-06T08:09:25;18.00;72.10
29031;DHT22;16122;50.236;11.734;2023-05-06T08:11:52;18.10;72.00
29031;DHT22;16122;50.236;11.734;2023-05-06T08:14:18;18.00;71.70
29031;DHT22;16122;50.236;11.734;2023-05-06T08:16:44;18.10;71.70
29031;DHT22;16122;50.236;11.734;2023-05-06T08:19:10;18.10;71.70
29031;DHT22;16122;50.236;11.734;2023-05-06T08:21:35;18.10;71.60
29031;DHT22;16122;50.236;11.734;2023-05-06T08:24:01;18.10;71.60
29031;DHT22;16122;50.236;11.734;2023-05-06T08:26:27;18.10;71.80
29031;DHT22;16122;50.236;11.734;2023-05-06T08:28:53;18.10;71.80
29031;DHT22;16122;50.236;11.734;2023-05-06T08:31:20;18.10;71.80
29031;DHT22;16122;50.236;11.734;2023-05-06T08:33:46;18.10;71.80
29031;DHT22;16122;50.236;11.734;2023-05-06T08:36:12;18.10;72.00
29031;DHT22;16122;50.236;11.734;2023-05-06T08:38:38;18.10;72.30
29031;DHT22;16122;50.236;11.734;2023-05-06T08:41:08;18.20;73.20
29031;DHT22;16122;50.236;11.734;2023-05-06T08:43:46;18.10;72.90
29031;DHT22;16122;50.236;11.734;2023-05-06T08:46:13;18.10;72.90
29031;DHT22;16122;50.236;11.734;2023-05-06T08:48:39;18.20;73.40
29031;DHT22;16122;50.236;11.734;2023-05-06T08:51:06;18.10;73.10
29031;DHT22;16122;50.236;11.734;2023-05-06T08:53:33;18.20;73.40
29031;DHT22;16122;50.236;11.734;2023-05-06T08:56:06;18.20;73.40
29031;DHT22;16122;50.236;11.734;2023-05-06T08:58:34;18.20;73.60
29031;DHT22;16122;50.236;11.734;2023-05-06T09:01:02;18.10;73.60
29031;DHT22;16122;50.236;11.734;2023-05-06T09:03:28;18.10;74.00
29031;DHT22;16122;50.236;11.734;2023-05-06T09:05:57;18.10;74.10
29031;DHT22;16122;50.236;11.734;2023-05-06T09:08:23;18.10;74.30
29031;DHT22;16122;50.236;11.734;2023-05-06T09:10:49;18.20;74.50
29031;DHT22;16122;50.236;11.734;2023-05-06T09:13:17;18.10;74.30
29031;DHT22;16122;50.236;11.734;2023-05-06T09:15:47;18.10;74.20
29031;DHT22;16122;50.236;11.734;2023-05-06T09:18:14;18.10;74.50
29031;DHT22;16122;50.236;11.734;2023-05-06T09:20:43;18.10;74.70
29031;DHT22;16122;50.236;11.734;2023-05-06T09:23:10;18.10;75.00
29031;DHT22;16122;50.236;11.734;2023-05-06T09:25:37;18.10;75.10
29031;DHT22;16122;50.236;11.734;2023-05-06T09:28:08;18.10;75.40
29031;DHT22;16122;50.236;11.734;2023-05-06T09:30:44;18.10;75.50
29031;DHT22;16122;50.236;11.734;2023-05-06T09:33:12;18.20;76.00
29031;DHT22;16122;50.236;11.734;2023-05-06T09:35:39;18.20;75.90
29031;DHT22;16122;50.236;11.734;2023-05-06T09:38:07;18.20;75.80
29031;DHT22;16122;50.236;11.734;2023-05-06T09:40:36;18.20;76.40
29031;DHT22;16122;50.236;11.734;2023-05-06T09:43:03;18.20;76.80
29031;DHT22;16122;50.236;11.734;2023-05-06T09:45:29;18.20;76.70
29031;DHT22;16122;50.236;11.734;2023-05-06T09:47:56;18.20;76.70
29031;DHT22;16122;50.236;11.734;2023-05-06T09:50:22;18.20;77.10
29031;DHT22;16122;50.236;11.734;2023-05-06T09:52:48;18.20;77.10
29031;DHT22;16122;50.236;11.734;2023-05-06T09:55:18;18.20;77.10
29031;DHT22;16122;50.236;11.734;2023-05-06T09:57:44;18.20;77.20
29031;DHT22;16122;50.236;11.734;2023-05-06T10:00:11;18.20;77.20
29031;DHT22;16122;50.236;11.734;2023-05-06T10:02:42;18.10;77.10
29031;DHT22;16122;50.236;11.734;2023-05-06T10:05:09;18.10;77.30
29031;DHT22;16122;50.236;11.734;2023-05-06T10:07:36;18.20;77.40
29031;DHT22;16122;50.236;11.734;2023-05-06T10:10:08;18.10;77.00
29031;DHT22;16122;50.236;11.734;2023-05-06T10:12:35;18.10;77.20
29031;DHT22;16122;50.236;11.734;2023-05-06T10:15:01;18.10;77.10
29031;DHT22;16122;50.236;11.734;2023-05-06T10:17:30;18.10;77.10
29031;DHT22;16122;50.236;11.734;2023-05-06T10:20:01;18.10;77.10
29031;DHT22;16122;50.236;11.734;2023-05-06T10:25:16;18.10;77.40
29031;DHT22;16122;50.236;11.734;2023-05-06T10:27:44;18.10;77.40
29031;DHT22;16122;50.236;11.734;2023-05-06T10:30:13;18.10;77.20
29031;DHT22;16122;50.236;11.734;2023-05-06T10:32:42;18.20;77.20
29031;DHT22;16122;50.236;11.734;2023-05-06T10:37:53;18.20;76.90
29031;DHT22;16122;50.236;11.734;2023-05-06T10:40:19;18.20;77.00
29031;DHT22;16122;50.236;11.734;2023-05-06T10:42:47;18.10;77.00
29031;DHT22;16122;50.236;11.734;2023-05-06T10:45:13;18.10;77.10
29031;DHT22;16122;50.236;11.734;2023-05-06T10:50:23;18.10;77.20
29031;DHT22;16122;50.236;11.734;2023-05-06T10:52:54;18.10;77.20
29031;DHT22;16122;50.236;11.734;2023-05-06T10:55:34;18.10;77.30
29031;DHT22;16122;50.236;11.734;2023-05-06T10:58:17;18.20;77.30
29031;DHT22;16122;50.236;11.734;2023-05-06T11:00:52;18.20;77.60
29031;DHT22;16122;50.236;11.734;2023-05-06T11:03:22;18.10;77.30
29031;DHT22;16122;50.236;11.734;2023-05-06T11:05:51;18.10;77.20
29031;DHT22;16122;50.236;11.734;2023-05-06T11:08:26;18.10;77.50
29031;DHT22;16122;50.236;11.734;2023-05-06T11:10:53;18.10;77.10
29031;DHT22;16122;50.236;11.734;2023-05-06T11:13:29;18.10;77.10
29031;DHT22;16122;50.236;11.734;2023-05-06T11:15:59;18.10;77.20
29031;DHT22;16122;50.236;11.734;2023-05-06T11:26:07;18.10;77.20
29031;DHT22;16122;50.236;11.734;2023-05-06T11:28:33;18.10;77.60
29031;DHT22;16122;50.236;11.734;2023-05-06T11:31:00;18.10;77.20
29031;DHT22;16122;50.236;11.734;2023-05-06T11:33:36;18.10;77.20
29031;DHT22;16122;50.236;11.734;2023-05-06T11:36:05;18.10;77.20
29031;DHT22;16122;50.236;11.734;2023-05-06T11:41:09;18.10;77.40
29031;DHT22;16122;50.236;11.734;2023-05-06T11:43:35;18.10;77.20
29031;DHT22;16122;50.236;11.734;2023-05-06T11:46:01;18.10;77.20
29031;DHT22;16122;50.236;11.734;2023-05-06T11:48:27;18.10;77.00
29031;DHT22;16122;50.236;11.734;2023-05-06T11:50:53;18.10;77.00
29031;DHT22;16122;50.236;11.734;2023-05-06T11:53:22;18.10;77.10
29031;DHT22;16122;50.236;11.734;2023-05-06T11:55:51;18.10;77.00
29031;DHT22;16122;50.236;11.734;2023-05-06T11:58:21;18.10;77.20
29031;DHT22;16122;50.236;11.734;2023-05-06T12:00:54;18.10;77.10
29031;DHT22;16122;50.236;11.734;2023-05-06T12:03:22;18.10;77.20
29031;DHT22;16122;50.236;11.734;2023-05-06T12:05:49;18.10;77.20
29031;DHT22;16122;50.236;11.734;2023-05-06T12:08:17;18.10;77.10
29031;DHT22;16122;50.236;11.734;2023-05-06T12:10:48;18.10;77.20
29031;DHT22;16122;50.236;11.734;2023-05-06T12:13:15;18.10;77.20
29031;DHT22;16122;50.236;11.734;2023-05-06T12:15:42;18.10;77.20
29031;DHT22;16122;50.236;11.734;2023-05-06T12:18:09;18.10;77.20
29031;DHT22;16122;50.236;11.734;2023-05-06T12:20:35;18.10;77.10
29031;DHT22;16122;50.236;11.734;2023-05-06T12:23:19;18.10;77.20
29031;DHT22;16122;50.236;11.734;2023-05-06T12:26:05;18.10;77.10
29031;DHT22;16122;50.236;11.734;2023-05-06T12:28:32;18.10;77.10
29031;DHT22;16122;50.236;11.734;2023-05-06T12:30:59;18.10;77.10
29031;DHT22;16122;50.236;11.734;2023-05-06T12:33:25;18.10;77.40
29031;DHT22;16122;50.236;11.734;2023-05-06T12:35:50;18.10;77.50
29031;DHT22;16122;50.236;11.734;2023-05-06T12:38:19;18.10;77.30
29031;DHT22;16122;50.236;11.734;2023-05-06T12:40:53;18.10;77.30
29031;DHT22;16122;50.236;11.734;2023-05-06T12:43:27;18.10;77.40
29031;DHT22;16122;50.236;11.734;2023-05-06T12:46:04;18.10;77.60
29031;DHT22;16122;50.236;11.734;2023-05-06T12:48:30;18.20;77.30
29031;DHT22;16122;50.236;11.734;2023-05-06T12:50:56;18.10;77.20
29031;DHT22;16122;50.236;11.734;2023-05-06T12:53:33;18.10;77.20
29031;DHT22;16122;50.236;11.734;2023-05-06T12:55:59;18.10;77.40
29031;DHT22;16122;50.236;11.734;2023-05-06T12:58:25;18.10;77.40
29031;DHT22;16122;50.236;11.734;2023-05-06T13:00:51;18.10;77.50
29031;DHT22;16122;50.236;11.734;2023-05-06T13:03:17;18.20;77.50
29031;DHT22;16122;50.236;11.734;2023-05-06T13:05:43;18.20;77.50
29031;DHT22;16122;50.236;11.734;2023-05-06T13:08:11;18.20;77.60
29031;DHT22;16122;50.236;11.734;2023-05-06T13:10:36;18.20;77.50
29031;DHT22;16122;50.236;11.734;2023-05-06T13:13:02;18.10;77.50
29031;DHT22;16122;50.236;11.734;2023-05-06T13:15:28;18.20;77.40
29031;DHT22;16122;50.236;11.734;2023-05-06T13:17:54;18.20;77.40
29031;DHT22;16122;50.236;11.734;2023-05-06T13:20:21;18.10;77.40
29031;DHT22;16122;50.236;11.734;2023-05-06T13:22:47;18.20;77.50
29031;DHT22;16122;50.236;11.734;2023-05-06T13:25:13;18.20;77.40
29031;DHT22;16122;50.236;11.734;2023-05-06T13:27:39;18.10;77.30
29031;DHT22;16122;50.236;11.734;2023-05-06T13:30:05;18.10;77.30
29031;DHT22;16122;50.236;11.734;2023-05-06T13:32:31;18.10;77.30
29031;DHT22;16122;50.236;11.734;2023-05-06T13:34:57;18.10;77.20
29031;DHT22;16122;50.236;11.734;2023-05-06T13:37:23;18.20;77.30
29031;DHT22;16122;50.236;11.734;2023-05-06T13:39:48;18.10;77.20
29031;DHT22;16122;50.236;11.734;2023-05-06T13:42:14;18.10;77.20
29031;DHT22;16122;50.236;11.734;2023-05-06T13:44:40;18.10;77.30
29031;DHT22;16122;50.236;11.734;2023-05-06T13:47:06;18.10;77.10
29031;DHT22;16122;50.236;11.734;2023-05-06T13:49:32;18.10;77.10
29031;DHT22;16122;50.236;11.734;2023-05-06T13:51:57;18.10;77.10
29031;DHT22;16122;50.236;11.734;2023-05-06T13:54:23;18.20;77.20
29031;DHT22;16122;50.236;11.734;2023-05-06T13:56:49;18.20;77.20
29031;DHT22;16122;50.236;11.734;2023-05-06T13:59:15;18.10;77.10
29031;DHT22;16122;50.236;11.734;2023-05-06T14:01:41;18.20;77.20
29031;DHT22;16122;50.236;11.734;2023-05-06T14:04:07;18.10;77.20
29031;DHT22;16122;50.236;11.734;2023-05-06T14:06:33;18.10;77.20
29031;DHT22;16122;50.236;11.734;2023-05-06T14:08:59;18.20;77.20
29031;DHT22;16122;50.236;11.734;2023-05-06T14:11:24;18.10;76.90
29031;DHT22;16122;50.236;11.734;2023-05-06T14:13:50;18.20;77.00
29031;DHT22;16122;50.236;11.734;2023-05-06T14:16:16;18.20;76.80
29031;DHT22;16122;50.236;11.734;2023-05-06T14:18:42;18.20;76.70
29031;DHT22;16122;50.236;11.734;2023-05-06T14:21:08;18.20;76.40
29031;DHT22;16122;50.236;11.734;2023-05-06T14:23:34;18.20;76.30
29031;DHT22;16122;50.236;11.734;2023-05-06T14:25:59;18.20;76.30
29031;DHT22;16122;50.236;11.734;2023-05-06T14:28:25;18.20;76.40
29031;DHT22;16122;50.236;11.734;2023-05-06T14:30:51;18.20;76.40
29031;DHT22;16122;50.236;11.734;2023-05-06T14:33:17;18.20;76.40
29031;DHT22;16122;50.236;11.734;2023-05-06T14:35:44;18.20;76.40
29031;DHT22;16122;50.236;11.734;2023-05-06T14:38:10;18.20;76.30
29031;DHT22;16122;50.236;11.734;2023-05-06T14:40:36;18.20;76.40
29031;DHT22;16122;50.236;11.734;2023-05-06T14:43:03;18.20;76.30
29031;DHT22;16122;50.236;11.734;2023-05-06T14:45:29;18.20;76.40
29031;DHT22;16122;50.236;11.734;2023-05-06T14:47:55;18.20;76.40
29031;DHT22;16122;50.236;11.734;2023-05-06T14:50:21;18.20;76.30
29031;DHT22;16122;50.236;11.734;2023-05-06T14:52:47;18.20;76.40
29031;DHT22;16122;50.236;11.734;2023-05-06T14:55:13;18.20;76.30
29031;DHT22;16122;50.236;11.734;2023-05-06T14:57:39;18.20;76.20
29031;DHT22;16122;50.236;11.734;2023-05-06T15:00:06;18.20;76.20
29031;DHT22;16122;50.236;11.734;2023-05-06T15:02:37;18.20;76.20
29031;DHT22;16122;50.236;11.734;2023-05-06T15:05:09;18.20;76.20
29031;DHT22;16122;50.236;11.734;2023-05-06T15:07:36;18.20;76.10
29031;DHT22;16122;50.236;11.734;2023-05-06T15:10:02;18.20;76.10
29031;DHT22;16122;50.236;11.734;2023-05-06T15:12:28;18.20;76.00
29031;DHT22;16122;50.236;11.734;2023-05-06T15:14:54;18.20;76.00
29031;DHT22;16122;50.236;11.734;2023-05-06T15:17:20;18.20;76.00
29031;DHT22;16122;50.236;11.734;2023-05-06T15:19:46;18.20;76.20
29031;DHT22;16122;50.236;11.734;2023-05-06T15:22:12;18.20;76.40
29031;DHT22;16122;50.236;11.734;2023-05-06T15:24:38;18.20;76.70
29031;DHT22;16122;50.236;11.734;2023-05-06T15:27:04;18.30;77.00
29031;DHT22;16122;50.236;11.734;2023-05-06T15:29:30;18.30;76.90
29031;DHT22;16122;50.236;11.734;2023-05-06T15:31:56;18.30;77.00
29031;DHT22;16122;50.236;11.734;2023-05-06T15:34:21;18.30;77.00
29031;DHT22;16122;50.236;11.734;2023-05-06T15:36:52;18.30;77.00
29031;DHT22;16122;50.236;11.734;2023-05-06T15:39:18;18.30;76.90
29031;DHT22;16122;50.236;11.734;2023-05-06T15:41:45;18.30;77.00
29031;DHT22;16122;50.236;11.734;2023-05-06T15:44:11;18.30;77.00
29031;DHT22;16122;50.236;11.734;2023-05-06T15:46:37;18.30;76.90